createdAt,value
2023-02-23T00:02:17.820Z,37.67
2023-02-23T00:04:54.236Z,40.35
2023-02-23T00:07:37.203Z,38.38
2023-02-23T00:10:40.876Z,39.00
2023-02-23T00:13:24.774Z,38.60
2023-02-23T00:16:28.328Z,36.47
2023-02-23T00:19:24.295Z,33.10
2023-02-23T00:21:55.746Z,32.25
2023-02-23T00:24:51.010Z,39.42
2023-02-23T00:27:47.924Z,38.25
2023-02-23T00:30:44.591Z,37.83
2023-02-23T00:33:25.539Z,32.13
2023-02-23T00:39:27.661Z,35.70
2023-02-23T00:42:11.224Z,40.28
2023-02-23T00:47:59.330Z,33.80
2023-02-23T00:50:43.234Z,34.85
2023-02-23T00:53:28.704Z,35.33
2023-02-23T00:56:06.306Z,34.75
2023-02-23T00:59:05.005Z,39.13
2023-02-23T01:01:35.383Z,36.55
2023-02-23T01:04:19.723Z,36.58
2023-02-23T01:06:56.040Z,40.95
2023-02-23T01:09:33.454Z,41.25
2023-02-23T01:12:18.284Z,36.77
2023-02-23T01:14:51.496Z,35.65
2023-02-23T01:17:34.454Z,36.28
2023-02-23T01:20:05.729Z,33.05
2023-02-23T01:22:45.594Z,36.80
2023-02-23T01:25:15.977Z,33.20
2023-02-23T01:27:58.837Z,28.92
2023-02-23T01:30:38.724Z,33.70
2023-02-23T01:33:16.981Z,34.50
2023-02-23T01:36:05.622Z,34.60
2023-02-23T01:38:36.660Z,35.03
2023-02-23T01:41:11.199Z,36.58
2023-02-23T01:44:04.151Z,35.55
2023-02-23T01:46:49.154Z,35.00
2023-02-23T01:49:40.680Z,36.10
2023-02-23T01:52:59.641Z,33.80
2023-02-23T01:55:34.389Z,32.30
2023-02-23T01:58:15.412Z,35.03
2023-02-23T02:00:56.468Z,37.10
2023-02-23T02:03:58.952Z,33.78
2023-02-23T02:06:45.344Z,30.00
2023-02-23T02:09:22.047Z,30.98
2023-02-23T02:11:58.331Z,35.70
2023-02-23T02:14:36.674Z,28.85
2023-02-23T02:17:47.917Z,37.30
2023-02-23T02:21:15.316Z,34.10
2023-02-23T02:24:18.062Z,34.70
2023-02-23T02:27:05.762Z,38.70
2023-02-23T02:30:11.792Z,39.03
2023-02-23T02:33:04.939Z,35.22
2023-02-23T02:36:16.387Z,39.17
2023-02-23T02:38:54.049Z,33.50
2023-02-23T02:42:06.962Z,39.42
2023-02-23T02:45:19.602Z,38.60
2023-02-23T02:48:07.145Z,38.05
2023-02-23T02:51:12.886Z,32.87
2023-02-23T02:54:09.031Z,37.60
2023-02-23T02:56:48.283Z,38.90
2023-02-23T02:59:40.014Z,38.83
2023-02-23T03:02:32.501Z,37.97
2023-02-23T03:05:41.861Z,41.77
2023-02-23T03:09:16.613Z,37.75
2023-02-23T03:12:42.106Z,42.13
2023-02-23T03:15:54.712Z,42.92
2023-02-23T03:19:37.307Z,39.55
2023-02-23T03:22:46.524Z,42.63
2023-02-23T03:25:54.292Z,45.70
2023-02-23T03:28:51.627Z,42.03
2023-02-23T03:32:01.883Z,44.25
2023-02-23T03:35:25.155Z,45.50
2023-02-23T03:38:32.302Z,40.37
2023-02-23T03:41:27.763Z,45.38
2023-02-23T03:44:28.047Z,38.97
2023-02-23T03:47:30.179Z,47.95
2023-02-23T03:50:21.601Z,46.05
2023-02-23T03:53:16.885Z,47.33
2023-02-23T03:56:13.071Z,51.63
2023-02-23T03:59:16.614Z,50.92
2023-02-23T04:02:09.702Z,52.63
2023-02-23T04:05:04.589Z,48.55
2023-02-23T04:07:57.457Z,50.23
2023-02-23T04:10:48.818Z,49.85
2023-02-23T04:13:24.557Z,51.45
2023-02-23T04:16:14.516Z,60.13
2023-02-23T04:18:53.422Z,43.63
2023-02-23T04:21:23.435Z,45.33
2023-02-23T04:24:00.967Z,44.95
2023-02-23T04:26:30.745Z,44.42
2023-02-23T04:29:03.952Z,47.28
2023-02-23T04:31:49.061Z,38.30
2023-02-23T04:34:36.964Z,45.63
2023-02-23T04:37:09.195Z,37.45
2023-02-23T04:39:45.098Z,46.85
2023-02-23T04:42:16.784Z,45.90
2023-02-23T04:44:59.284Z,48.85
2023-02-23T04:47:38.442Z,46.23
2023-02-23T04:50:11.750Z,55.20
2023-02-23T04:52:49.763Z,46.22
2023-02-23T04:55:31.340Z,52.65
2023-02-23T04:58:06.479Z,43.55
2023-02-23T05:00:43.642Z,43.60
2023-02-23T05:03:17.660Z,51.50
2023-02-23T05:05:51.094Z,58.05
2023-02-23T05:08:30.416Z,48.75
2023-02-23T05:11:05.520Z,48.72
2023-02-23T05:13:37.667Z,49.67
2023-02-23T05:16:28.786Z,46.50
2023-02-23T05:19:00.179Z,45.17
2023-02-23T05:21:37.304Z,58.40
2023-02-23T05:24:12.596Z,58.72
2023-02-23T05:26:49.905Z,50.30
2023-02-23T05:29:30.684Z,51.08
2023-02-23T05:32:04.596Z,48.22
2023-02-23T05:34:38.083Z,49.55
2023-02-23T05:37:15.969Z,47.38
2023-02-23T05:39:54.254Z,49.83
2023-02-23T05:42:24.786Z,53.28
2023-02-23T05:45:05.092Z,55.35
2023-02-23T05:47:43.140Z,47.30
2023-02-23T05:50:21.966Z,58.28
2023-02-23T05:52:55.435Z,49.27
2023-02-23T05:55:37.910Z,55.13
2023-02-23T05:58:28.484Z,50.88
2023-02-23T06:00:56.226Z,51.53
2023-02-23T06:03:32.941Z,48.22
2023-02-23T06:06:01.880Z,40.93
2023-02-23T06:08:42.250Z,47.08
2023-02-23T06:11:17.864Z,52.95
2023-02-23T06:13:48.044Z,47.17
2023-02-23T06:16:52.089Z,51.53
2023-02-23T06:19:25.257Z,47.10
2023-02-23T06:22:07.181Z,47.28
2023-02-23T06:24:38.884Z,47.70
2023-02-23T06:27:17.922Z,49.22
2023-02-23T06:30:06.161Z,48.38
2023-02-23T06:32:39.033Z,44.40
2023-02-23T06:35:12.561Z,46.88
2023-02-23T06:37:46.277Z,45.10
2023-02-23T06:40:26.426Z,46.65
2023-02-23T06:43:19.916Z,48.65
2023-02-23T06:46:39.161Z,52.43
2023-02-23T06:52:36.223Z,41.55
2023-02-23T06:55:10.634Z,46.38
2023-02-23T06:57:54.148Z,41.42
2023-02-23T07:00:43.872Z,49.70
2023-02-23T07:03:39.999Z,48.47
2023-02-23T07:06:20.164Z,44.85
2023-02-23T07:09:03.384Z,48.05
2023-02-23T07:11:51.249Z,47.75
2023-02-23T07:14:46.692Z,46.90
2023-02-23T07:18:00.521Z,56.03
2023-02-23T07:20:41.075Z,41.50
2023-02-23T07:23:21.031Z,42.95
2023-02-23T07:26:02.308Z,52.08
2023-02-23T07:28:35.613Z,49.17
2023-02-23T07:31:14.414Z,43.95
2023-02-23T07:33:55.772Z,49.05
2023-02-23T07:36:27.267Z,53.40
2023-02-23T07:39:03.231Z,46.10
2023-02-23T07:41:35.487Z,52.87
2023-02-23T07:44:12.328Z,50.13
2023-02-23T07:47:02.479Z,52.60
2023-02-23T07:49:52.714Z,62.83
2023-02-23T07:52:35.413Z,51.58
2023-02-23T07:55:16.794Z,54.33
2023-02-23T07:57:55.731Z,48.90
2023-02-23T08:00:31.204Z,49.03
2023-02-23T08:03:06.014Z,64.00
2023-02-23T08:05:45.192Z,50.03
2023-02-23T08:08:23.593Z,53.47
2023-02-23T08:11:08.987Z,58.03
2023-02-23T08:13:39.673Z,62.85
2023-02-23T08:16:23.248Z,46.40
2023-02-23T08:18:56.764Z,55.63
2023-02-23T08:21:37.335Z,56.23
2023-02-23T08:24:15.714Z,63.83
2023-02-23T08:26:52.623Z,51.58
2023-02-23T08:29:22.455Z,58.08
2023-02-23T08:31:59.943Z,59.28
2023-02-23T08:34:36.020Z,57.90
2023-02-23T08:37:22.190Z,62.97
2023-02-23T08:40:03.891Z,64.30
2023-02-23T08:42:37.331Z,59.85
2023-02-23T08:45:09.860Z,60.83
2023-02-23T08:47:46.055Z,69.57
2023-02-23T08:50:16.244Z,59.15
2023-02-23T08:52:48.683Z,66.03
2023-02-23T08:55:25.339Z,65.47
2023-02-23T08:58:09.183Z,61.05
2023-02-23T09:00:49.369Z,58.93
2023-02-23T09:03:17.223Z,64.60
2023-02-23T09:05:54.382Z,59.67
2023-02-23T09:08:26.397Z,58.97
2023-02-23T09:10:54.856Z,60.92
2023-02-23T09:13:25.112Z,62.23
2023-02-23T09:16:02.923Z,58.70
2023-02-23T09:18:44.784Z,59.55
2023-02-23T09:21:23.650Z,61.95
2023-02-23T09:24:00.209Z,62.20
2023-02-23T09:26:41.545Z,62.37
2023-02-23T09:29:18.630Z,64.72
2023-02-23T09:31:51.411Z,58.08
2023-02-23T09:34:31.892Z,61.92
2023-02-23T09:37:08.933Z,53.35
2023-02-23T09:39:50.178Z,57.17
2023-02-23T09:42:42.978Z,56.78
2023-02-23T09:45:37.595Z,54.30
2023-02-23T09:48:25.668Z,54.08
2023-02-23T09:50:56.797Z,62.30
2023-02-23T09:53:41.052Z,59.10
2023-02-23T09:56:57.386Z,59.00
2023-02-23T09:59:31.345Z,51.13
2023-02-23T10:03:07.042Z,52.58
2023-02-23T10:05:50.577Z,51.10
2023-02-23T10:08:55.965Z,55.37
2023-02-23T10:12:12.638Z,54.78
2023-02-23T10:15:42.968Z,57.72
2023-02-23T10:18:46.692Z,57.10
2023-02-23T10:21:41.556Z,60.22
2023-02-23T10:24:25.380Z,49.83
2023-02-23T10:27:17.602Z,49.58
2023-02-23T10:30:02.074Z,56.47
2023-02-23T10:33:03.706Z,50.42
2023-02-23T10:35:36.141Z,51.42
2023-02-23T10:38:03.437Z,49.47
2023-02-23T10:40:34.208Z,56.65
2023-02-23T10:43:02.803Z,58.85
2023-02-23T10:45:38.220Z,50.83
2023-02-23T10:48:18.618Z,44.45
2023-02-23T10:51:06.661Z,44.83
2023-02-23T10:53:41.737Z,44.40
2023-02-23T10:56:20.341Z,43.50
2023-02-23T10:59:56.334Z,50.97
2023-02-23T11:06:25.554Z,47.63
2023-02-23T11:09:17.176Z,47.53
2023-02-23T11:13:18.759Z,46.03
2023-02-23T11:16:23.607Z,49.38
2023-02-23T11:19:35.176Z,45.17
2023-02-23T11:23:13.055Z,40.93
2023-02-23T11:26:45.696Z,40.97
2023-02-23T11:30:04.555Z,41.85
2023-02-23T11:33:08.180Z,35.42
2023-02-23T11:36:08.300Z,35.85
2023-02-23T11:39:04.110Z,42.17
2023-02-23T11:43:17.902Z,40.40
2023-02-23T11:45:46.254Z,42.95
2023-02-23T11:49:31.256Z,39.08
2023-02-23T11:52:22.248Z,36.00
2023-02-23T11:55:12.632Z,42.47
2023-02-23T11:58:42.877Z,39.38
2023-02-23T12:06:57.823Z,37.85
2023-02-23T12:14:39.151Z,44.57
2023-02-23T12:18:13.723Z,45.20
2023-02-23T12:21:23.055Z,41.72
2023-02-23T12:24:54.414Z,40.05
2023-02-23T12:32:57.267Z,41.13
2023-02-23T12:35:52.985Z,32.55
2023-02-23T12:39:27.416Z,29.80
2023-02-23T12:43:31.228Z,30.55
2023-02-23T12:47:04.897Z,31.27
2023-02-23T12:51:43.029Z,25.17
2023-02-23T12:54:14.210Z,30.73
2023-02-23T12:57:58.799Z,30.50
2023-02-23T13:01:41.187Z,31.67
2023-02-23T13:08:58.510Z,42.83
2023-02-23T13:16:16.135Z,32.35
2023-02-23T13:19:29.592Z,30.52
2023-02-23T13:23:21.309Z,29.75
2023-02-23T13:30:36.010Z,28.52
2023-02-23T13:33:45.148Z,31.92
2023-02-23T13:36:57.801Z,32.38
2023-02-23T13:54:11.128Z,38.35
2023-02-23T14:04:15.442Z,44.77
2023-02-23T14:11:15.510Z,38.25
2023-02-23T14:14:59.084Z,34.45
2023-02-23T14:18:31.020Z,34.60
2023-02-23T14:21:39.061Z,37.40
2023-02-23T14:24:50.213Z,42.95
2023-02-23T14:27:41.593Z,36.45
2023-02-23T14:30:15.296Z,39.42
2023-02-23T14:32:51.180Z,39.33
2023-02-23T14:35:35.234Z,40.23
2023-02-23T14:42:08.939Z,43.10
2023-02-23T14:44:57.350Z,35.63
2023-02-23T14:47:27.899Z,45.20
2023-02-23T14:50:11.603Z,38.33
2023-02-23T14:52:51.958Z,33.55
2023-02-23T14:55:29.672Z,29.92
2023-02-23T14:58:10.864Z,34.67
2023-02-23T15:00:45.948Z,32.95
2023-02-23T15:03:42.992Z,28.60
2023-02-23T15:06:16.789Z,30.45
2023-02-23T15:08:59.830Z,30.35
2023-02-23T15:11:41.897Z,32.25
2023-02-23T15:14:36.414Z,32.67
2023-02-23T15:17:28.895Z,31.80
2023-02-23T15:23:05.879Z,25.25
2023-02-23T15:25:48.253Z,30.70
2023-02-23T15:28:33.228Z,31.17
2023-02-23T15:31:11.780Z,30.77
2023-02-23T15:33:44.549Z,32.15
2023-02-23T15:36:30.940Z,32.70
2023-02-23T15:39:25.875Z,28.73
2023-02-23T15:42:00.584Z,30.00
2023-02-23T15:44:48.623Z,30.33
2023-02-23T15:47:39.238Z,27.27
2023-02-23T15:50:36.345Z,27.08
2023-02-23T15:53:19.700Z,26.30
2023-02-23T15:55:48.853Z,34.60
2023-02-23T15:58:31.587Z,26.70
2023-02-23T16:01:13.819Z,24.67
2023-02-23T16:04:02.262Z,24.75
2023-02-23T16:06:38.587Z,25.05
2023-02-23T16:09:27.696Z,26.70
2023-02-23T16:12:29.033Z,20.53
2023-02-23T16:15:24.386Z,23.42
2023-02-23T16:18:24.485Z,21.67
2023-02-23T16:21:01.950Z,19.25
2023-02-23T16:23:43.258Z,20.10
2023-02-23T16:26:24.193Z,23.97
2023-02-23T16:29:06.935Z,21.85
2023-02-23T16:31:53.252Z,18.45
2023-02-23T16:34:50.932Z,19.45
2023-02-23T16:37:26.708Z,20.23
2023-02-23T16:40:18.198Z,20.67
2023-02-23T16:42:59.808Z,19.88
2023-02-23T16:45:35.397Z,19.77
2023-02-23T16:48:23.051Z,21.63
2023-02-23T16:51:17.297Z,21.75
2023-02-23T16:53:59.421Z,24.73
2023-02-23T16:57:24.437Z,19.88
2023-02-23T17:00:08.535Z,19.42
2023-02-23T17:02:43.223Z,22.63
2023-02-23T17:05:46.148Z,22.13
2023-02-23T17:08:28.546Z,22.63
2023-02-23T17:10:59.003Z,22.77
2023-02-23T17:13:33.266Z,25.00
2023-02-23T17:16:07.048Z,23.38
2023-02-23T17:19:09.514Z,21.50
2023-02-23T17:22:15.054Z,22.23
2023-02-23T17:24:51.949Z,22.98
2023-02-23T17:28:23.691Z,23.35
2023-02-23T17:30:53.148Z,24.88
2023-02-23T17:33:48.187Z,28.35
2023-02-23T17:36:45.356Z,24.97
2023-02-23T17:39:32.220Z,23.65
2023-02-23T17:42:16.029Z,22.50
2023-02-23T17:44:56.889Z,24.90
2023-02-23T17:47:51.229Z,29.35
2023-02-23T17:50:32.189Z,23.70
2023-02-23T17:53:24.176Z,26.15
2023-02-23T17:56:03.933Z,26.50
2023-02-23T17:58:56.138Z,22.55
2023-02-23T18:01:47.421Z,21.48
2023-02-23T18:04:20.804Z,22.37
2023-02-23T18:07:04.794Z,23.83
2023-02-23T18:09:52.126Z,22.25
2023-02-23T18:12:30.241Z,20.95
2023-02-23T18:15:05.644Z,22.27
2023-02-23T18:17:41.840Z,20.90
2023-02-23T18:20:30.387Z,23.00
2023-02-23T18:23:18.214Z,23.38
2023-02-23T18:26:11.876Z,21.77
2023-02-23T18:28:51.361Z,22.60
2023-02-23T18:31:48.451Z,21.90
2023-02-23T18:34:31.677Z,22.75
2023-02-23T18:37:24.626Z,20.70
2023-02-23T18:41:05.549Z,18.70
2023-02-23T18:42:55.586Z,18.50
2023-02-23T18:45:27.117Z,19.93
2023-02-23T18:48:07.592Z,21.25
2023-02-23T18:50:40.241Z,23.77
2023-02-23T18:53:18.960Z,20.27
2023-02-23T18:55:50.799Z,24.15
2023-02-23T18:58:36.378Z,17.30
2023-02-23T19:01:20.986Z,19.38
2023-02-23T19:03:54.224Z,20.73
2023-02-23T19:06:46.895Z,19.65
2023-02-23T19:09:24.697Z,23.17
2023-02-23T19:12:05.002Z,20.93
2023-02-23T19:14:58.277Z,23.67
2023-02-23T19:18:06.726Z,22.30
2023-02-23T19:21:08.780Z,23.52
2023-02-23T19:25:13.209Z,19.63
2023-02-23T19:28:17.706Z,19.33
2023-02-23T19:32:10.781Z,27.25
2023-02-23T19:35:44.375Z,21.38
2023-02-23T19:39:47.111Z,19.73
2023-02-23T19:50:16.624Z,23.83
2023-02-23T19:53:32.297Z,21.67
2023-02-23T19:57:43.671Z,25.38
2023-02-23T20:04:51.232Z,21.77
2023-02-23T20:08:09.246Z,25.38
2023-02-23T20:10:59.058Z,25.92
2023-02-23T20:37:11.235Z,22.90
2023-02-23T20:44:44.291Z,31.63
2023-02-23T21:02:19.519Z,30.90
2023-02-23T21:09:40.896Z,36.58
2023-02-23T21:15:45.266Z,36.78
2023-02-23T21:26:11.185Z,17.00
2023-02-23T21:30:00.092Z,16.08
2023-02-23T21:35:52.091Z,7.83
2023-02-23T21:42:02.988Z,10.07
2023-02-23T21:46:17.387Z,10.18
2023-02-23T21:48:34.542Z,13.32
2023-02-23T21:54:53.862Z,12.45
2023-02-23T22:01:12.496Z,10.40
2023-02-23T22:08:03.575Z,15.03
2023-02-23T22:10:14.154Z,18.02
2023-02-23T22:12:47.958Z,15.38
2023-02-23T22:15:24.719Z,15.40
2023-02-23T22:17:58.751Z,18.63
2023-02-23T22:20:34.070Z,12.00
2023-02-23T22:23:15.051Z,14.75
2023-02-23T22:25:50.846Z,14.75
2023-02-23T22:28:33.298Z,14.05
2023-02-23T22:31:09.367Z,13.50
2023-02-23T22:33:42.920Z,12.27
2023-02-23T22:36:18.644Z,16.27
2023-02-23T22:39:07.903Z,17.40
2023-02-23T22:41:45.437Z,17.80
2023-02-23T22:44:24.348Z,18.10
2023-02-23T22:46:53.187Z,15.30
2023-02-23T22:49:33.684Z,12.43
2023-02-23T22:52:08.632Z,15.52
2023-02-23T22:54:41.254Z,18.42
2023-02-23T22:57:13.272Z,12.68
2023-02-23T22:59:40.773Z,15.03
2023-02-23T23:02:14.590Z,10.38
2023-02-23T23:04:44.206Z,14.93
2023-02-23T23:07:13.497Z,17.80
2023-02-23T23:09:44.581Z,14.05
2023-02-23T23:12:13.495Z,9.67
2023-02-23T23:14:48.281Z,12.95
2023-02-23T23:17:22.832Z,13.00
2023-02-23T23:19:57.597Z,10.77
2023-02-23T23:22:31.741Z,10.15
2023-02-23T23:24:59.182Z,11.60
2023-02-23T23:27:35.159Z,9.20
2023-02-23T23:30:06.044Z,12.63
2023-02-23T23:32:42.765Z,13.75
2023-02-23T23:35:14.346Z,7.75
2023-02-23T23:37:55.962Z,10.80
2023-02-23T23:40:26.436Z,8.20
2023-02-23T23:43:07.924Z,5.65
2023-02-23T23:45:39.713Z,10.73
2023-02-23T23:48:10.897Z,14.55
2023-02-23T23:50:44.621Z,16.13
2023-02-23T23:53:16.141Z,14.93
2023-02-23T23:55:49.362Z,10.70
2023-02-23T23:58:30.596Z,8.50
